createdAt,value
2023-01-29T00:02:01.572Z,6.50
2023-01-29T00:06:06.796Z,6.13
2023-01-29T00:10:11.473Z,6.30
2023-01-29T00:14:14.963Z,6.50
2023-01-29T00:18:19.370Z,7.10
2023-01-29T00:22:27.976Z,6.67
2023-01-29T00:26:33.414Z,7.07
2023-01-29T00:30:39.114Z,7.23
2023-01-29T00:34:43.887Z,6.33
2023-01-29T00:38:54.844Z,6.60
2023-01-29T00:43:16.391Z,6.70
2023-01-29T00:47:33.559Z,5.57
2023-01-29T00:51:39.250Z,5.80
2023-01-29T00:55:45.902Z,5.77
2023-01-29T00:59:48.953Z,6.10
2023-01-29T01:03:53.433Z,6.27
2023-01-29T01:07:59.746Z,4.90
2023-01-29T01:12:03.103Z,5.97
2023-01-29T01:16:15.121Z,6.33
2023-01-29T01:20:19.233Z,6.30
2023-01-29T01:24:23.831Z,5.83
2023-01-29T01:28:27.351Z,5.87
2023-01-29T01:32:30.458Z,5.83
2023-01-29T01:36:36.453Z,6.00
2023-01-29T01:40:48.148Z,5.80
2023-01-29T01:44:58.691Z,6.20
2023-01-29T01:49:13.274Z,6.10
2023-01-29T01:53:20.464Z,6.57
2023-01-29T01:57:26.796Z,6.80
2023-01-29T02:01:42.975Z,5.83
2023-01-29T02:06:03.551Z,6.60
2023-01-29T02:10:14.344Z,6.10
2023-01-29T02:14:23.041Z,7.37
2023-01-29T02:18:26.066Z,6.27
2023-01-29T02:22:55.074Z,5.83
2023-01-29T02:27:07.666Z,6.37
2023-01-29T02:31:25.800Z,6.37
2023-01-29T02:35:37.637Z,6.20
2023-01-29T02:39:46.715Z,5.83
2023-01-29T02:43:56.886Z,5.30
2023-01-29T02:48:06.357Z,5.50
2023-01-29T02:52:19.090Z,5.43
2023-01-29T02:56:28.303Z,5.43
2023-01-29T03:00:37.049Z,4.53
2023-01-29T03:04:47.785Z,4.90
2023-01-29T03:08:58.827Z,3.57
2023-01-29T03:13:05.675Z,3.93
2023-01-29T03:17:11.904Z,3.10
2023-01-29T03:21:41.681Z,3.30
2023-01-29T03:26:03.089Z,3.40
2023-01-29T03:30:26.296Z,3.13
2023-01-29T03:34:39.009Z,3.33
2023-01-29T03:38:43.926Z,3.53
2023-01-29T03:42:58.892Z,3.27
2023-01-29T03:47:13.891Z,3.50
2023-01-29T03:51:25.977Z,3.53
2023-01-29T03:55:38.590Z,3.90
2023-01-29T03:59:51.010Z,3.90
2023-01-29T04:04:02.189Z,3.67
2023-01-29T04:08:17.721Z,3.47
2023-01-29T04:12:27.650Z,4.03
2023-01-29T04:16:38.851Z,3.73
2023-01-29T04:20:44.276Z,3.67
2023-01-29T04:24:48.650Z,4.03
2023-01-29T04:29:17.207Z,4.60
2023-01-29T04:33:33.376Z,4.10
2023-01-29T04:37:45.576Z,3.83
2023-01-29T04:41:56.937Z,4.13
2023-01-29T04:46:15.564Z,4.10
2023-01-29T04:50:30.033Z,4.10
2023-01-29T04:54:51.433Z,4.20
2023-01-29T04:58:59.541Z,4.33
2023-01-29T05:03:08.258Z,4.83
2023-01-29T05:07:17.360Z,4.40
2023-01-29T05:11:21.625Z,4.57
2023-01-29T05:15:27.187Z,4.20
2023-01-29T05:19:31.696Z,4.23
2023-01-29T05:23:34.849Z,3.90
2023-01-29T05:27:56.167Z,4.53
2023-01-29T05:31:59.367Z,4.70
2023-01-29T05:36:04.163Z,4.70
2023-01-29T05:40:14.382Z,4.57
2023-01-29T05:44:17.810Z,4.40
2023-01-29T05:48:23.797Z,4.77
2023-01-29T05:52:31.812Z,5.70
2023-01-29T05:56:34.868Z,5.83
2023-01-29T06:00:38.176Z,5.67
2023-01-29T06:04:41.474Z,5.30
2023-01-29T06:08:46.005Z,5.80
2023-01-29T06:12:50.861Z,6.03
2023-01-29T06:16:56.420Z,5.47
2023-01-29T06:21:06.331Z,5.37
2023-01-29T06:25:14.347Z,6.07
2023-01-29T06:29:20.109Z,5.37
2023-01-29T06:33:25.559Z,5.47
2023-01-29T06:37:28.676Z,5.80
2023-01-29T06:41:33.462Z,5.87
2023-01-29T06:45:39.499Z,5.70
2023-01-29T06:49:42.578Z,6.23
2023-01-29T06:53:46.648Z,6.80
2023-01-29T06:57:51.270Z,6.20
2023-01-29T07:01:54.371Z,6.17
2023-01-29T07:06:01.757Z,6.60
2023-01-29T07:10:05.806Z,6.27
2023-01-29T07:14:10.429Z,6.43
2023-01-29T07:18:18.371Z,6.67
2023-01-29T07:22:24.359Z,6.87
2023-01-29T07:26:27.547Z,6.60
2023-01-29T07:30:32.503Z,7.07
2023-01-29T07:34:35.529Z,6.83
2023-01-29T07:38:38.953Z,7.93
2023-01-29T07:42:44.109Z,7.40
2023-01-29T07:46:48.982Z,6.67
2023-01-29T07:50:58.512Z,7.63
2023-01-29T07:55:01.886Z,6.97
2023-01-29T07:59:04.918Z,7.57
2023-01-29T08:03:13.739Z,7.83
2023-01-29T08:07:17.042Z,7.43
2023-01-29T08:11:20.039Z,7.73
2023-01-29T08:15:23.333Z,8.40
2023-01-29T08:19:28.039Z,7.70
2023-01-29T08:23:31.189Z,7.80
2023-01-29T08:27:38.206Z,8.17
2023-01-29T08:31:43.868Z,7.93
2023-01-29T08:35:51.760Z,8.10
2023-01-29T08:39:54.870Z,6.63
2023-01-29T08:44:02.794Z,7.10
2023-01-29T08:48:09.938Z,7.67
2023-01-29T08:52:14.439Z,7.23
2023-01-29T08:56:17.525Z,8.07
2023-01-29T09:00:21.321Z,7.93
2023-01-29T09:04:25.055Z,7.97
2023-01-29T09:08:29.585Z,8.40
2023-01-29T09:12:32.666Z,22.93
2023-01-29T09:16:38.231Z,75.13
2023-01-29T09:20:41.618Z,11.60
2023-01-29T09:24:46.254Z,12.97
2023-01-29T09:28:50.365Z,23.30
2023-01-29T09:32:54.681Z,11.30
2023-01-29T09:37:00.676Z,19.53
2023-01-29T09:41:16.397Z,7.70
2023-01-29T09:45:29.456Z,11.07
2023-01-29T09:49:37.608Z,15.23
2023-01-29T09:53:48.858Z,11.47
2023-01-29T09:57:57.275Z,10.63
2023-01-29T10:02:10.428Z,7.73
2023-01-29T10:06:32.388Z,16.27
2023-01-29T10:10:46.954Z,15.73
2023-01-29T10:15:11.381Z,9.70
2023-01-29T10:19:38.272Z,7.63
2023-01-29T10:23:48.462Z,9.10
2023-01-29T10:27:54.295Z,106.33
2023-01-29T10:32:06.029Z,8.60
2023-01-29T10:36:14.441Z,9.77
2023-01-29T10:40:22.087Z,7.93
2023-01-29T10:44:36.765Z,8.30
2023-01-29T10:48:59.908Z,10.47
2023-01-29T10:53:18.884Z,10.20
2023-01-29T10:57:39.329Z,9.30
2023-01-29T11:01:42.699Z,9.13
2023-01-29T11:05:54.363Z,26.00
2023-01-29T11:10:03.833Z,8.30
2023-01-29T11:14:12.680Z,14.00
2023-01-29T11:18:16.367Z,8.37
2023-01-29T11:22:26.993Z,8.73
2023-01-29T11:26:36.947Z,8.80
2023-01-29T11:30:42.695Z,8.10
2023-01-29T11:34:59.757Z,7.07
2023-01-29T11:39:22.948Z,8.20
2023-01-29T11:43:35.393Z,8.37
2023-01-29T11:47:38.674Z,7.97
2023-01-29T11:51:43.016Z,9.13
2023-01-29T11:55:54.498Z,14.67
2023-01-29T12:00:04.269Z,11.03
2023-01-29T12:04:20.744Z,8.97
2023-01-29T12:08:24.735Z,8.43
2023-01-29T12:12:36.056Z,8.10
2023-01-29T12:16:49.298Z,7.97
2023-01-29T12:20:59.666Z,8.03
2023-01-29T12:25:09.078Z,7.60
2023-01-29T12:29:28.748Z,7.57
2023-01-29T12:33:44.293Z,7.73
2023-01-29T12:37:53.397Z,7.90
2023-01-29T12:42:01.130Z,8.83
2023-01-29T12:46:09.840Z,8.40
2023-01-29T12:50:22.348Z,8.30
2023-01-29T12:54:34.483Z,7.57
2023-01-29T12:58:48.565Z,7.57
2023-01-29T13:02:59.135Z,7.20
2023-01-29T13:07:12.255Z,7.40
2023-01-29T13:11:22.633Z,9.07
2023-01-29T13:15:33.687Z,8.27
2023-01-29T13:19:43.334Z,8.30
2023-01-29T13:23:53.972Z,7.53
2023-01-29T13:27:57.159Z,8.50
2023-01-29T13:32:02.138Z,8.33
2023-01-29T13:36:16.781Z,7.30
2023-01-29T13:40:25.592Z,7.70
2023-01-29T13:44:32.992Z,7.70
2023-01-29T13:48:42.324Z,7.93
2023-01-29T13:52:53.756Z,8.20
2023-01-29T13:57:02.106Z,7.87
2023-01-29T14:01:05.435Z,7.83
2023-01-29T14:05:43.724Z,7.07
2023-01-29T14:10:14.359Z,7.97
2023-01-29T14:15:03.342Z,7.23
2023-01-29T14:19:20.426Z,7.83
2023-01-29T14:23:31.108Z,8.47
2023-01-29T14:27:39.361Z,7.57
2023-01-29T14:31:50.572Z,8.00
2023-01-29T14:35:56.411Z,8.10
2023-01-29T14:40:11.316Z,7.70
2023-01-29T14:44:50.007Z,8.40
2023-01-29T14:48:54.491Z,8.07
2023-01-29T14:53:14.668Z,7.83
2023-01-29T14:57:20.997Z,8.33
2023-01-29T15:01:27.182Z,7.30
2023-01-29T15:05:37.431Z,7.70
2023-01-29T15:09:49.165Z,7.93
2023-01-29T15:13:56.598Z,6.90
2023-01-29T15:18:09.320Z,7.53
2023-01-29T15:22:15.463Z,7.00
2023-01-29T15:26:21.035Z,8.30
2023-01-29T15:30:30.411Z,8.20
2023-01-29T15:34:33.762Z,8.70
2023-01-29T15:38:38.188Z,7.90
2023-01-29T15:42:49.010Z,7.87
2023-01-29T15:46:58.034Z,7.47
2023-01-29T15:51:05.342Z,8.03
2023-01-29T15:55:16.104Z,8.17
2023-01-29T15:59:26.231Z,7.70
2023-01-29T16:03:34.747Z,8.00
2023-01-29T16:07:38.839Z,7.63
2023-01-29T16:11:44.267Z,7.57
2023-01-29T16:15:57.079Z,8.03
2023-01-29T16:20:03.890Z,7.50
2023-01-29T16:24:11.889Z,7.53
2023-01-29T16:28:18.690Z,8.37
2023-01-29T16:32:29.490Z,8.13
2023-01-29T16:36:32.603Z,8.23
2023-01-29T16:40:40.516Z,8.40
2023-01-29T16:44:52.162Z,9.27
2023-01-29T16:48:55.746Z,8.63
2023-01-29T16:53:03.411Z,7.70
2023-01-29T16:57:07.289Z,9.30
2023-01-29T17:01:13.589Z,8.20
2023-01-29T17:05:23.478Z,8.90
2023-01-29T17:09:30.722Z,9.30
2023-01-29T17:13:46.888Z,8.27
2023-01-29T17:17:57.094Z,10.47
2023-01-29T17:22:08.426Z,12.30
2023-01-29T17:26:17.143Z,11.93
2023-01-29T17:30:24.241Z,12.37
2023-01-29T17:34:29.021Z,10.27
2023-01-29T17:38:33.314Z,10.30
2023-01-29T17:42:43.822Z,11.60
2023-01-29T17:46:51.813Z,10.13
2023-01-29T17:50:58.794Z,12.20
2023-01-29T17:55:05.892Z,12.30
2023-01-29T17:59:18.240Z,14.03
2023-01-29T18:03:22.312Z,11.70
2023-01-29T18:07:29.162Z,16.87
2023-01-29T18:11:33.572Z,61.73
2023-01-29T18:15:38.846Z,44.43
2023-01-29T18:19:42.007Z,70.43
2023-01-29T18:23:48.222Z,31.63
2023-01-29T18:27:53.938Z,295.53
2023-01-29T18:32:02.486Z,175.73
2023-01-29T18:36:07.858Z,669.07
2023-01-29T18:40:17.115Z,192.73
2023-01-29T18:44:20.621Z,469.50
2023-01-29T18:48:26.430Z,451.03
2023-01-29T18:52:29.451Z,92.30
2023-01-29T18:57:08.608Z,30.50
2023-01-29T19:01:09.418Z,30.23
2023-01-29T19:05:12.960Z,16.87
2023-01-29T19:09:16.308Z,13.03
2023-01-29T19:13:21.162Z,11.53
2023-01-29T19:17:27.159Z,10.77
2023-01-29T19:21:35.888Z,10.20
2023-01-29T19:25:39.561Z,10.53
2023-01-29T19:29:44.019Z,10.43
2023-01-29T19:33:47.439Z,10.53
2023-01-29T19:37:53.607Z,10.93
2023-01-29T19:41:57.056Z,10.93
2023-01-29T19:46:05.077Z,10.93
2023-01-29T19:50:16.846Z,11.00
2023-01-29T19:54:23.285Z,10.77
2023-01-29T19:58:26.586Z,10.83
2023-01-29T20:02:35.536Z,11.83
2023-01-29T20:06:38.711Z,13.03
2023-01-29T20:10:46.694Z,13.07
2023-01-29T20:14:50.758Z,11.47
2023-01-29T20:18:56.224Z,11.33
2023-01-29T20:23:35.294Z,11.93
2023-01-29T20:27:39.970Z,12.83
2023-01-29T20:31:43.142Z,12.90
2023-01-29T20:35:53.920Z,12.07
2023-01-29T20:39:58.878Z,12.27
2023-01-29T20:44:01.907Z,12.83
2023-01-29T20:48:06.305Z,12.70
2023-01-29T20:52:11.435Z,12.73
2023-01-29T20:56:16.265Z,12.70
2023-01-29T21:00:25.116Z,13.23
2023-01-29T21:04:31.318Z,14.20
2023-01-29T21:08:39.273Z,12.57
2023-01-29T21:12:43.582Z,12.63
2023-01-29T21:16:46.595Z,14.10
2023-01-29T21:20:51.180Z,14.43
2023-01-29T21:24:58.938Z,14.03
2023-01-29T21:29:05.424Z,13.03
2023-01-29T21:33:09.429Z,13.17
2023-01-29T21:37:15.187Z,12.73
2023-01-29T21:41:40.673Z,12.87
2023-01-29T21:45:44.443Z,17.53
2023-01-29T21:49:47.903Z,14.63
2023-01-29T21:53:59.785Z,14.33
2023-01-29T21:58:04.453Z,14.17
2023-01-29T22:02:14.485Z,15.07
2023-01-29T22:06:18.015Z,13.80
2023-01-29T22:10:23.830Z,14.67
2023-01-29T22:14:30.511Z,11.40
2023-01-29T22:18:35.269Z,15.50
2023-01-29T22:22:38.413Z,16.10
2023-01-29T22:26:42.892Z,16.43
2023-01-29T22:30:49.943Z,16.47
2023-01-29T22:34:54.528Z,15.33
2023-01-29T22:38:58.263Z,14.43
2023-01-29T22:43:03.375Z,15.17
2023-01-29T22:47:10.799Z,13.63
2023-01-29T22:51:16.922Z,12.63
2023-01-29T22:55:20.044Z,12.67
2023-01-29T22:59:30.157Z,15.17
2023-01-29T23:03:35.813Z,16.13
2023-01-29T23:07:38.892Z,16.40
2023-01-29T23:11:44.240Z,14.93
2023-01-29T23:15:48.275Z,16.07
2023-01-29T23:19:53.187Z,15.97
2023-01-29T23:23:58.534Z,15.13
2023-01-29T23:28:03.538Z,15.63
2023-01-29T23:32:07.986Z,16.60
2023-01-29T23:36:15.981Z,15.63
2023-01-29T23:40:19.487Z,15.37
2023-01-29T23:44:23.360Z,16.57
2023-01-29T23:48:29.441Z,17.23
2023-01-29T23:52:33.831Z,16.07
2023-01-29T23:56:37.257Z,17.07
